Time;durP1;ratioP1;P1;durP2;ratioP2;P2;SDS_P1;SDS_P2;PMS_P1;PMS_P2;Temp;Humidity;BMP_temperature;BMP_pressure;BME280_temperature;BME280_humidity;BME280_pressure;Samples;Min_cycle;Max_cycle;Signal;HPM_P1;HPM_P2
2022/05/27 00:01:55;;;;;;;11.05;9.80;;;;;;;;;;6214886;23;20009;-84
2022/05/27 00:04:22;;;;;;;12.35;9.25;;;;;;;;;;6215593;23;20012;-85
2022/05/27 00:06:51;;;;;;;8.95;7.78;;;;;;;;;;6216054;23;20004;-84
2022/05/27 00:09:17;;;;;;;8.15;7.15;;;;;;;;;;6215503;23;20036;-84
2022/05/27 00:11:43;;;;;;;8.18;7.38;;;;;;;;;;6215751;23;20368;-84
2022/05/27 00:14:11;;;;;;;8.20;7.45;;;;;;;;;;6215427;23;20007;-85
2022/05/27 00:22:45;;;;;;;9.65;7.80;;;;;;;;;;6084176;23;20011;-85
2022/05/27 00:25:19;;;;;;;8.23;7.35;;;;;;;;;;6055011;23;20090;-83
2022/05/27 00:28:06;;;;;;;10.38;6.97;;;;;;;;;;6065768;23;20011;-82
2022/05/27 00:30:44;;;;;;;;;;;;;;;;;;;;;
2022/05/27 00:33:26;;;;;;;;;;;;;;;;;;;;;
2022/05/27 00:35:54;;;;;;;8.07;6.78;;;;;;;;;;6164040;23;20391;-81
2022/05/27 00:38:23;;;;;;;7.10;6.40;;;;;;;;;;6215310;23;20007;-84
2022/05/27 00:40:52;;;;;;;8.60;6.65;;;;;;;;;;6215470;23;20001;-84
2022/05/27 00:43:21;;;;;;;7.72;6.88;;;;;;;;;;6215204;23;20007;-83
2022/05/27 00:45:52;;;;;;;7.38;6.68;;;;;;;;;;6215439;23;20059;-80
2022/05/27 00:48:24;;;;;;;7.40;6.13;;;;;;;;;;6215176;23;20005;-84
2022/05/27 00:50:53;;;;;;;9.13;6.45;;;;;;;;;;6215367;23;20391;-82
2022/05/27 00:53:58;;;;;;;9.65;6.47;;;;;;;;;;6215221;23;20432;-84
2022/05/27 00:56:29;;;;;;;9.43;6.88;;;;;;;;;;6214586;23;20039;-82
2022/05/27 00:58:59;;;;;;;7.50;6.75;;;;;;;;;;6188443;23;20392;-84
2022/05/27 01:01:26;;;;;;;8.15;6.72;;;;;;;;;;6215292;23;20036;-84
2022/05/27 01:04:01;;;;;;;7.47;6.13;;;;;;;;;;6215015;23;20000;-84
2022/05/27 01:06:27;;;;;;;8.27;6.85;;;;;;;;;;6215017;23;20328;-84
2022/05/27 01:08:54;;;;;;;7.72;6.53;;;;;;;;;;6188541;23;20032;-83
2022/05/27 01:11:20;;;;;;;8.00;6.90;;;;;;;;;;6215106;23;20005;-83
2022/05/27 01:14:01;;;;;;;8.82;6.78;;;;;;;;;;6214973;23;20131;-85
2022/05/27 01:16:57;;;;;;;8.32;6.18;;;;;;;;;;6214794;23;20036;-83
2022/05/27 01:22:27;;;;;;;8.05;6.32;;;;;;;;;;6214976;23;20016;-85
2022/05/27 01:25:18;;;;;;;6.50;5.53;;;;;;;;;;6215142;23;20052;-85
2022/05/27 01:36:27;;;;;;;;;;;;;;;;;;;;;
2022/05/27 01:42:24;;;;;;;7.18;5.63;;;;;;;;;;6017722;23;20094;-84
2022/05/27 01:45:13;;;;;;;7.35;5.45;;;;;;;;;;6057439;23;20018;-82
2022/05/27 01:48:04;;;;;;;6.85;5.32;;;;;;;;;;6199506;23;20015;-85
2022/05/27 01:50:57;;;;;;;6.35;5.68;;;;;;;;;;6148626;23;20004;-85
2022/05/27 01:53:26;;;;;;;6.65;5.55;;;;;;;;;;6213326;23;20031;-79
2022/05/27 01:55:55;;;;;;;7.18;5.75;;;;;;;;;;6214624;23;20055;-80
2022/05/27 01:58:26;;;;;;;6.82;5.75;;;;;;;;;;6214630;23;20005;-83
2022/05/27 02:00:52;;;;;;;6.05;5.40;;;;;;;;;;6188225;23;20440;-82
2022/05/27 02:03:20;;;;;;;8.25;5.22;;;;;;;;;;6215117;23;20000;-84
2022/05/27 02:05:56;;;;;;;;;;;;;;;;;;;;;
2022/05/27 02:08:40;;;;;;;6.90;5.10;;;;;;;;;;6214853;23;20079;-82
2022/05/27 02:20:50;;;;;;;;;;;;;;;;;;;;;
2022/05/27 02:27:05;;;;;;;;;;;;;;;;;;;;;
2022/05/27 02:35:42;;;;;;;9.48;5.80;;;;;;;;;;6064578;23;20007;-84
2022/05/27 02:41:33;;;;;;;10.32;6.53;;;;;;;;;;6007478;23;20016;-86
2022/05/27 02:44:07;;;;;;;8.27;6.07;;;;;;;;;;5990228;23;20464;-85
2022/05/27 02:49:36;;;;;;;8.60;5.45;;;;;;;;;;6124270;23;20508;-84
2022/05/27 02:52:05;;;;;;;7.30;5.78;;;;;;;;;;6164512;23;20008;-85
2022/05/27 02:57:35;;;;;;;7.30;5.47;;;;;;;;;;6195643;23;20009;-86
2022/05/27 03:00:05;;;;;;;7.55;4.80;;;;;;;;;;6216192;23;20019;-84
2022/05/27 03:02:33;;;;;;;7.28;4.95;;;;;;;;;;6216468;23;20001;-86
2022/05/27 03:05:20;;;;;;;;;;;;;;;;;;;;;
2022/05/27 03:08:08;;;;;;;7.15;5.28;;;;;;;;;;6216273;23;20083;-85
2022/05/27 03:10:38;;;;;;;7.82;5.75;;;;;;;;;;6216360;23;20012;-86
2022/05/27 03:13:22;;;;;;;8.88;5.80;;;;;;;;;;6216439;23;20000;-84
2022/05/27 03:16:04;;;;;;;7.55;5.65;;;;;;;;;;6216659;23;20005;-84
2022/05/27 03:18:49;;;;;;;7.10;5.65;;;;;;;;;;6216189;23;20011;-83
2022/05/27 03:21:38;;;;;;;6.22;5.05;;;;;;;;;;6189930;23;20099;-83
2022/05/27 03:24:23;;;;;;;9.13;6.13;;;;;;;;;;6189221;23;20568;-83
2022/05/27 03:27:08;;;;;;;8.38;6.50;;;;;;;;;;6216030;23;20012;-82
2022/05/27 03:29:56;;;;;;;8.20;5.68;;;;;;;;;;6216230;23;20035;-84
2022/05/27 03:32:32;;;;;;;7.40;5.72;;;;;;;;;;6189328;23;20476;-85
2022/05/27 03:35:03;;;;;;;8.18;5.85;;;;;;;;;;6189489;23;20005;-83
2022/05/27 03:37:31;;;;;;;7.75;5.70;;;;;;;;;;6215947;23;20008;-84
2022/05/27 03:40:03;;;;;;;7.35;5.70;;;;;;;;;;6215964;23;20084;-85
2022/05/27 03:42:33;;;;;;;7.68;5.75;;;;;;;;;;6216273;23;20428;-82
2022/05/27 03:45:07;;;;;;;8.38;6.53;;;;;;;;;;6215809;23;20039;-83
2022/05/27 03:47:33;;;;;;;8.52;6.28;;;;;;;;;;6216056;23;20000;-85
2022/05/27 03:50:02;;;;;;;8.35;6.45;;;;;;;;;;6189101;23;20340;-83
2022/05/27 03:52:30;;;;;;;7.22;5.40;;;;;;;;;;6215953;23;20035;-81
2022/05/27 03:54:59;;;;;;;7.63;5.38;;;;;;;;;;6215571;23;20012;-85
2022/05/27 03:57:27;;;;;;;7.70;6.15;;;;;;;;;;6215341;23;20379;-82
2022/05/27 04:02:40;;;;;;;7.28;6.07;;;;;;;;;;6154434;23;20079;-85
2022/05/27 04:05:10;;;;;;;9.50;6.95;;;;;;;;;;6215076;23;20506;-84
2022/05/27 04:07:36;;;;;;;7.85;6.97;;;;;;;;;;6189590;23;20058;-82
2022/05/27 04:10:03;;;;;;;8.45;6.50;;;;;;;;;;6215874;23;20012;-82
2022/05/27 04:12:29;;;;;;;7.38;6.55;;;;;;;;;;6216437;23;20005;-84
2022/05/27 04:14:55;;;;;;;8.18;6.63;;;;;;;;;;6215505;23;20005;-85
2022/05/27 04:17:30;;;;;;;8.57;6.80;;;;;;;;;;6215722;23;20001;-81
2022/05/27 04:19:56;;;;;;;9.15;6.65;;;;;;;;;;6215811;23;20447;-81
2022/05/27 04:22:26;;;;;;;8.20;7.50;;;;;;;;;;6215494;23;20005;-81
2022/05/27 04:24:52;;;;;;;8.57;6.90;;;;;;;;;;6215389;23;20024;-83
2022/05/27 04:27:19;;;;;;;9.88;6.95;;;;;;;;;;6215397;23;20004;-81
2022/05/27 04:29:50;;;;;;;7.82;6.70;;;;;;;;;;6215922;23;20016;-83
2022/05/27 04:32:17;;;;;;;7.70;6.90;;;;;;;;;;6215402;23;20005;-83
2022/05/27 04:34:43;;;;;;;7.90;7.13;;;;;;;;;;6214754;23;20331;-83
2022/05/27 04:37:10;;;;;;;9.63;7.55;;;;;;;;;;6215661;23;20043;-84
2022/05/27 04:39:36;;;;;;;8.85;7.90;;;;;;;;;;6215107;23;20328;-81
2022/05/27 04:42:02;;;;;;;8.30;7.13;;;;;;;;;;6215376;23;20075;-81
2022/05/27 04:44:29;;;;;;;15.18;12.77;;;;;;;;;;6214932;23;20063;-84
2022/05/27 04:46:55;;;;;;;7.55;6.82;;;;;;;;;;6215572;23;20008;-84
2022/05/27 04:52:08;;;;;;;8.45;7.55;;;;;;;;;;6215369;23;20059;-81
2022/05/27 04:54:35;;;;;;;6.63;6.03;;;;;;;;;;6214892;23;20051;-83
2022/05/27 04:57:01;;;;;;;7.95;7.05;;;;;;;;;;6188515;23;20012;-83
2022/05/27 04:59:27;;;;;;;10.27;6.68;;;;;;;;;;6187756;23;20008;-80
2022/05/27 05:01:55;;;;;;;7.82;7.03;;;;;;;;;;6215363;23;20012;-81
2022/05/27 05:04:21;;;;;;;8.20;6.72;;;;;;;;;;6215158;23;20416;-80
2022/05/27 05:06:48;;;;;;;7.78;6.65;;;;;;;;;;6214935;23;20067;-81
2022/05/27 05:09:14;;;;;;;7.03;6.32;;;;;;;;;;6214867;23;20004;-82
2022/05/27 05:11:40;;;;;;;7.55;5.95;;;;;;;;;;6214655;23;20047;-82
2022/05/27 05:14:06;;;;;;;6.70;5.90;;;;;;;;;;6214854;23;20375;-82
2022/05/27 05:16:32;;;;;;;7.45;5.95;;;;;;;;;;6188260;23;20032;-82
2022/05/27 05:18:58;;;;;;;6.85;5.80;;;;;;;;;;6214996;23;20079;-81
2022/05/27 05:21:24;;;;;;;7.65;5.65;;;;;;;;;;6214802;23;20016;-81
2022/05/27 05:23:50;;;;;;;10.13;5.28;;;;;;;;;;6214512;23;20028;-84
2022/05/27 05:26:16;;;;;;;7.38;5.88;;;;;;;;;;6215179;23;20024;-83
2022/05/27 05:28:43;;;;;;;9.07;5.18;;;;;;;;;;6214397;23;20007;-83
2022/05/27 05:31:11;;;;;;;6.80;5.03;;;;;;;;;;6213219;23;20005;-78
2022/05/27 05:33:37;;;;;;;7.45;4.78;;;;;;;;;;6213302;23;20043;-82
2022/05/27 05:36:04;;;;;;;5.70;4.60;;;;;;;;;;6209445;23;20318;-82
2022/05/27 05:38:30;;;;;;;5.70;5.10;;;;;;;;;;6213558;23;20009;-83
2022/05/27 05:40:56;;;;;;;10.02;4.82;;;;;;;;;;6214395;23;20011;-80
2022/05/27 05:43:22;;;;;;;84.47;74.30;;;;;;;;;;6211957;23;20432;-80
2022/05/27 05:45:49;;;;;;;12.57;9.23;;;;;;;;;;6213923;23;20063;-84
2022/05/27 05:48:15;;;;;;;6.22;4.32;;;;;;;;;;6214389;23;20008;-83
2022/05/27 05:50:54;;;;;;;;;;;;;;;;;;;;;
2022/05/27 05:53:37;;;;;;;5.97;4.45;;;;;;;;;;6214680;23;20075;-84
2022/05/27 05:56:04;;;;;;;13.07;11.73;;;;;;;;;;6182973;23;20016;-81
2022/05/27 05:58:32;;;;;;;8.00;7.03;;;;;;;;;;6183943;23;20048;-82
2022/05/27 06:04:46;;;;;;;6.25;4.53;;;;;;;;;;6143623;23;20048;-83
2022/05/27 06:07:16;;;;;;;6.65;4.53;;;;;;;;;;6154556;23;20345;-83
2022/05/27 06:09:45;;;;;;;12.63;7.78;;;;;;;;;;6158632;23;20013;-79
2022/05/27 06:12:11;;;;;;;6.35;5.30;;;;;;;;;;6184357;23;20024;-79
2022/05/27 06:14:43;;;;;;;6.95;4.38;;;;;;;;;;6183488;23;20009;-90
2022/05/27 06:17:09;;;;;;;7.05;5.25;;;;;;;;;;6134172;23;20005;-81
2022/05/27 06:19:38;;;;;;;5.57;4.70;;;;;;;;;;6184271;23;20767;-87
2022/05/27 06:22:16;;;;;;;6.78;5.47;;;;;;;;;;6185924;23;20454;-84
2022/05/27 06:24:45;;;;;;;5.47;4.95;;;;;;;;;;6158261;23;20081;-84
2022/05/27 06:27:11;;;;;;;8.63;6.57;;;;;;;;;;6185468;23;20005;-87
2022/05/27 06:35:41;;;;;;;8.02;7.22;;;;;;;;;;6186459;23;20020;-82
2022/05/27 06:38:07;;;;;;;8.50;5.53;;;;;;;;;;6185372;23;20001;-84
2022/05/27 06:40:37;;;;;;;5.82;5.22;;;;;;;;;;6159070;23;20012;-81
2022/05/27 06:43:10;;;;;;;8.82;5.80;;;;;;;;;;6159029;23;20005;-85
2022/05/27 06:45:49;;;;;;;8.95;6.05;;;;;;;;;;6186569;23;20035;-81
2022/05/27 06:48:15;;;;;;;9.70;5.60;;;;;;;;;;6185742;23;20037;-85
2022/05/27 06:50:41;;;;;;;6.20;5.60;;;;;;;;;;6185748;23;20004;-81
2022/05/27 06:53:29;;;;;;;7.68;6.90;;;;;;;;;;6184225;23;20495;-82
2022/05/27 06:59:25;;;;;;;8.10;6.25;;;;;;;;;;6185116;23;20009;-84
2022/05/27 07:01:54;;;;;;;8.73;6.68;;;;;;;;;;6159071;23;20084;-78
2022/05/27 07:04:23;;;;;;;7.13;6.43;;;;;;;;;;6185614;23;20428;-80
2022/05/27 07:06:50;;;;;;;11.77;7.35;;;;;;;;;;6184884;23;20011;-82
2022/05/27 07:09:17;;;;;;;10.77;9.38;;;;;;;;;;6185626;23;20007;-83
2022/05/27 07:11:44;;;;;;;10.88;7.80;;;;;;;;;;6185790;23;20328;-79
2022/05/27 07:14:12;;;;;;;11.02;7.80;;;;;;;;;;6186101;23;20005;-84
2022/05/27 07:16:38;;;;;;;11.85;8.80;;;;;;;;;;6163715;23;20009;-82
2022/05/27 07:19:04;;;;;;;10.38;8.18;;;;;;;;;;6185932;23;20001;-79
2022/05/27 07:21:30;;;;;;;42.38;37.97;;;;;;;;;;6184645;23;20001;-80
2022/05/27 07:23:57;;;;;;;57.17;47.92;;;;;;;;;;6185013;23;20013;-81
2022/05/27 07:26:27;;;;;;;31.55;26.98;;;;;;;;;;6185809;23;20075;-86
2022/05/27 07:28:56;;;;;;;22.92;18.83;;;;;;;;;;6186451;23;20084;-83
2022/05/27 07:31:22;;;;;;;18.52;14.80;;;;;;;;;;6185382;23;20444;-84
2022/05/27 07:33:48;;;;;;;19.33;16.05;;;;;;;;;;6185611;23;20004;-81
2022/05/27 07:36:14;;;;;;;12.55;10.93;;;;;;;;;;6185081;23;20005;-81
2022/05/27 07:38:40;;;;;;;12.02;9.30;;;;;;;;;;6185997;23;20009;-87
2022/05/27 07:41:06;;;;;;;10.65;7.78;;;;;;;;;;6185092;23;20016;-82
2022/05/27 07:43:33;;;;;;;8.40;7.07;;;;;;;;;;6184859;23;20001;-81
2022/05/27 07:45:59;;;;;;;7.63;6.82;;;;;;;;;;6186029;23;20029;-83
2022/05/27 07:48:26;;;;;;;10.15;5.90;;;;;;;;;;6185418;23;20012;-78
2022/05/27 07:50:54;;;;;;;10.07;6.75;;;;;;;;;;6185569;23;20417;-81
2022/05/27 07:53:21;;;;;;;8.32;7.13;;;;;;;;;;6185346;23;20513;-83
2022/05/27 07:55:47;;;;;;;7.22;5.78;;;;;;;;;;6212862;23;20470;-87
2022/05/27 07:58:13;;;;;;;7.35;5.85;;;;;;;;;;6215310;23;20071;-80
2022/05/27 08:00:39;;;;;;;9.57;5.68;;;;;;;;;;6214404;23;20008;-79
2022/05/27 08:03:06;;;;;;;7.28;5.43;;;;;;;;;;6214733;23;20005;-81
2022/05/27 08:05:33;;;;;;;9.93;6.45;;;;;;;;;;6215252;23;20005;-81
2022/05/27 08:07:59;;;;;;;7.30;5.57;;;;;;;;;;6213866;23;20004;-83
2022/05/27 08:10:30;;;;;;;17.13;14.55;;;;;;;;;;6215360;23;20378;-82
2022/05/27 08:12:57;;;;;;;14.45;13.00;;;;;;;;;;6211833;23;20032;-81
2022/05/27 08:15:23;;;;;;;8.88;6.70;;;;;;;;;;6214712;23;20087;-80
2022/05/27 08:17:49;;;;;;;6.68;5.80;;;;;;;;;;6214134;23;20027;-82
2022/05/27 08:20:20;;;;;;;8.00;5.28;;;;;;;;;;6215227;23;20082;-81
2022/05/27 08:22:46;;;;;;;8.07;6.35;;;;;;;;;;6213977;23;20000;-81
2022/05/27 08:25:13;;;;;;;12.07;10.82;;;;;;;;;;6216304;23;20021;-81
2022/05/27 08:27:39;;;;;;;13.20;10.38;;;;;;;;;;6215263;23;20075;-82
2022/05/27 08:30:07;;;;;;;10.45;6.63;;;;;;;;;;6213886;23;20095;-85
2022/05/27 08:32:33;;;;;;;10.65;6.57;;;;;;;;;;6189209;23;20090;-83
2022/05/27 08:40:48;;;;;;;9.13;6.35;;;;;;;;;;6216146;23;20101;-81
2022/05/27 08:43:29;;;;;;;9.13;6.32;;;;;;;;;;6213530;23;20012;-79
2022/05/27 08:45:55;;;;;;;6.60;5.43;;;;;;;;;;6214002;23;20020;-84
2022/05/27 08:48:23;;;;;;;7.55;5.90;;;;;;;;;;6214666;23;20056;-85
2022/05/27 08:50:55;;;;;;;9.95;7.07;;;;;;;;;;6215038;23;20313;-80
2022/05/27 08:53:40;;;;;;;7.80;6.25;;;;;;;;;;6215151;23;20084;-83
2022/05/27 09:01:43;;;;;;;11.50;6.53;;;;;;;;;;6215378;23;20019;-82
2022/05/27 09:04:18;;;;;;;8.18;6.35;;;;;;;;;;6214439;23;20416;-82
2022/05/27 09:06:48;;;;;;;8.60;6.50;;;;;;;;;;6211686;23;20004;-83
2022/05/27 09:09:33;;;;;;;6.97;5.32;;;;;;;;;;6213384;23;20012;-82
2022/05/27 09:11:59;;;;;;;29.50;25.98;;;;;;;;;;6213960;23;20004;-81
2022/05/27 09:14:27;;;;;;;14.77;11.38;;;;;;;;;;6214027;23;20455;-80
2022/05/27 09:17:12;;;;;;;19.52;12.45;;;;;;;;;;6214561;23;20001;-81
2022/05/27 09:19:53;;;;;;;14.80;8.32;;;;;;;;;;6213613;23;20075;-83
2022/05/27 09:22:20;;;;;;;8.73;6.40;;;;;;;;;;6215109;23;20328;-82
2022/05/27 09:25:04;;;;;;;8.82;7.00;;;;;;;;;;6188006;23;20015;-85
2022/05/27 09:27:31;;;;;;;8.57;6.72;;;;;;;;;;6189599;23;20031;-88
2022/05/27 09:30:03;;;;;;;8.30;6.75;;;;;;;;;;6187434;23;20000;-82
2022/05/27 09:35:37;;;;;;;8.15;6.00;;;;;;;;;;6214348;23;20013;-86
2022/05/27 09:38:05;;;;;;;9.60;7.97;;;;;;;;;;6187526;23;20012;-86
2022/05/27 09:40:39;;;;;;;8.07;6.22;;;;;;;;;;6214287;23;20096;-84
2022/05/27 09:43:12;;;;;;;32.53;29.15;;;;;;;;;;6213172;23;20313;-83
2022/05/27 09:45:40;;;;;;;13.27;12.02;;;;;;;;;;6214145;23;20092;-83
2022/05/27 09:48:25;;;;;;;13.63;10.27;;;;;;;;;;6213875;23;20132;-84
2022/05/27 09:50:51;;;;;;;10.93;8.50;;;;;;;;;;6212744;23;20004;-82
2022/05/27 09:53:23;;;;;;;11.68;9.48;;;;;;;;;;6187298;23;20016;-82
2022/05/27 09:55:53;;;;;;;8.30;7.13;;;;;;;;;;6189078;23;20132;-82
2022/05/27 09:58:24;;;;;;;15.38;6.43;;;;;;;;;;6214397;23;20359;-84
2022/05/27 10:00:50;;;;;;;11.18;5.38;;;;;;;;;;6187620;23;20434;-84
2022/05/27 10:03:26;;;;;;;9.32;5.78;;;;;;;;;;6214131;23;20001;-81
2022/05/27 10:05:53;;;;;;;6.80;4.78;;;;;;;;;;6213699;23;20008;-86
2022/05/27 10:08:39;;;;;;;7.88;5.00;;;;;;;;;;6212918;23;20005;-84
2022/05/27 10:11:09;;;;;;;15.45;12.32;;;;;;;;;;6213794;23;20028;-85
2022/05/27 10:13:46;;;;;;;13.32;10.07;;;;;;;;;;6214765;23;19996;-83
2022/05/27 10:16:15;;;;;;;8.75;5.88;;;;;;;;;;6213816;23;20016;-82
2022/05/27 10:18:44;;;;;;;14.27;9.30;;;;;;;;;;6213849;23;20070;-84
2022/05/27 10:21:38;;;;;;;;;;;;;;;;;;;;;
2022/05/27 10:24:14;;;;;;;8.77;6.22;;;;;;;;;;6213473;23;20416;-82
2022/05/27 10:26:41;;;;;;;12.02;5.63;;;;;;;;;;6213823;23;20084;-80
2022/05/27 10:29:15;;;;;;;7.53;5.38;;;;;;;;;;6212149;23;20335;-81
2022/05/27 10:31:52;;;;;;;9.32;4.70;;;;;;;;;;6213012;23;20028;-82
2022/05/27 10:34:37;;;;;;;8.20;4.95;;;;;;;;;;6186955;23;20009;-81
2022/05/27 10:37:08;;;;;;;8.75;5.20;;;;;;;;;;6186249;23;20096;-82
2022/05/27 10:39:40;;;;;;;6.93;5.07;;;;;;;;;;6212657;23;20346;-83
2022/05/27 10:42:24;;;;;;;9.25;4.55;;;;;;;;;;6187988;23;20494;-89
2022/05/27 10:44:50;;;;;;;8.23;4.38;;;;;;;;;;6187638;23;20111;-87
2022/05/27 10:47:22;;;;;;;7.47;3.92;;;;;;;;;;6213836;23;20120;-85
2022/05/27 10:49:50;;;;;;;9.07;4.50;;;;;;;;;;6213855;23;20007;-88
2022/05/27 10:52:23;;;;;;;6.32;4.38;;;;;;;;;;6213825;23;20001;-85
2022/05/27 10:55:10;;;;;;;8.25;4.90;;;;;;;;;;6213069;23;20017;-82
2022/05/27 11:03:46;;;;;;;9.65;4.82;;;;;;;;;;6212908;23;20071;-83
2022/05/27 11:06:18;;;;;;;11.55;6.35;;;;;;;;;;6188053;23;20331;-82
2022/05/27 11:08:49;;;;;;;8.75;5.55;;;;;;;;;;6188246;23;20273;-83
2022/05/27 11:11:36;;;;;;;14.73;8.98;;;;;;;;;;6188337;23;20051;-81
2022/05/27 11:17:19;;;;;;;10.93;7.63;;;;;;;;;;6206405;23;20031;-81
2022/05/27 11:20:07;;;;;;;11.52;7.15;;;;;;;;;;6212726;23;20001;-79
2022/05/27 11:22:37;;;;;;;9.57;6.15;;;;;;;;;;6215464;23;20004;-81
2022/05/27 11:25:22;;;;;;;9.55;5.38;;;;;;;;;;6215735;23;20013;-82
2022/05/27 11:28:06;;;;;;;8.50;5.13;;;;;;;;;;6215435;23;20436;-81
2022/05/27 11:30:32;;;;;;;14.50;6.22;;;;;;;;;;6210916;23;20005;-81
2022/05/27 11:32:59;;;;;;;10.35;6.38;;;;;;;;;;6215362;23;20027;-82
2022/05/27 11:35:45;;;;;;;12.23;6.65;;;;;;;;;;6215237;23;20420;-82
2022/05/27 11:38:30;;;;;;;8.77;4.97;;;;;;;;;;6172253;23;20008;-82
2022/05/27 11:41:16;;;;;;;7.68;5.05;;;;;;;;;;6213980;23;20008;-82
2022/05/27 11:43:53;;;;;;;15.60;10.50;;;;;;;;;;6174690;23;20036;-85
2022/05/27 11:46:31;;;;;;;10.73;5.90;;;;;;;;;;6215797;23;20005;-82
2022/05/27 11:49:16;;;;;;;14.98;8.02;;;;;;;;;;6215740;23;20011;-83
2022/05/27 11:51:48;;;;;;;8.30;5.50;;;;;;;;;;6215282;23;20043;-82
2022/05/27 11:54:33;;;;;;;6.97;4.88;;;;;;;;;;6188795;23;20040;-84
2022/05/27 11:57:30;;;;;;;8.20;5.03;;;;;;;;;;6214720;23;20004;-83
2022/05/27 12:00:13;;;;;;;10.02;6.20;;;;;;;;;;6191553;23;20019;-82
2022/05/27 12:03:09;;;;;;;48.35;43.08;;;;;;;;;;6215657;23;20009;-84
2022/05/27 12:05:39;;;;;;;263.10;235.10;;;;;;;;;;6196646;23;20016;-82
2022/05/27 12:08:27;;;;;;;21.13;17.58;;;;;;;;;;6214767;23;20015;-85
2022/05/27 12:10:55;;;;;;;11.10;7.07;;;;;;;;;;6215710;23;20001;-84
2022/05/27 12:13:21;;;;;;;9.35;5.57;;;;;;;;;;6216398;23;20004;-83
2022/05/27 12:15:52;;;;;;;7.18;4.45;;;;;;;;;;6214999;23;20004;-85
2022/05/27 12:18:27;;;;;;;7.00;4.30;;;;;;;;;;6187111;23;20336;-76
2022/05/27 12:20:53;;;;;;;10.65;4.63;;;;;;;;;;6214281;23;20004;-81
2022/05/27 12:23:22;;;;;;;8.77;4.47;;;;;;;;;;6213892;23;20308;-82
2022/05/27 12:25:50;;;;;;;7.57;4.85;;;;;;;;;;6183357;23;20016;-81
2022/05/27 12:28:17;;;;;;;10.45;4.78;;;;;;;;;;6212537;23;20001;-80
2022/05/27 12:30:44;;;;;;;18.15;15.65;;;;;;;;;;6213323;23;20004;-80
2022/05/27 12:33:19;;;;;;;8.32;5.15;;;;;;;;;;6212868;23;20023;-82
2022/05/27 12:36:02;;;;;;;23.90;20.67;;;;;;;;;;6213738;23;20011;-81
2022/05/27 12:38:33;;;;;;;13.38;6.43;;;;;;;;;;6214018;23;20122;-81
2022/05/27 12:41:22;;;;;;;8.15;5.60;;;;;;;;;;6214393;23;20001;-82
2022/05/27 12:43:58;;;;;;;11.05;5.57;;;;;;;;;;6197788;23;20008;-82
2022/05/27 12:46:29;;;;;;;9.30;5.40;;;;;;;;;;6187758;23;20027;-82
2022/05/27 12:49:15;;;;;;;7.45;3.97;;;;;;;;;;6216796;23;20016;-83
2022/05/27 12:51:45;;;;;;;6.85;4.18;;;;;;;;;;6209908;23;20005;-80
2022/05/27 12:54:11;;;;;;;7.05;4.25;;;;;;;;;;6212896;23;20047;-81
2022/05/27 13:02:33;;;;;;;10.35;4.55;;;;;;;;;;6214025;23;20066;-81
2022/05/27 13:05:02;;;;;;;9.82;4.15;;;;;;;;;;6213237;23;20395;-83
2022/05/27 13:07:28;;;;;;;6.75;5.15;;;;;;;;;;6214559;23;20005;-83
2022/05/27 13:09:56;;;;;;;46.60;41.97;;;;;;;;;;6189207;23;20031;-82
2022/05/27 13:12:41;;;;;;;10.27;7.55;;;;;;;;;;6216707;23;20005;-83
2022/05/27 13:15:11;;;;;;;9.20;4.93;;;;;;;;;;6215040;23;20054;-82
2022/05/27 13:17:43;;;;;;;6.88;3.97;;;;;;;;;;6214715;23;20428;-85
2022/05/27 13:20:16;;;;;;;6.68;3.88;;;;;;;;;;6215163;23;20347;-85
2022/05/27 13:23:03;;;;;;;8.55;4.32;;;;;;;;;;6212302;23;20004;-85
2022/05/27 13:28:29;;;;;;;9.85;4.00;;;;;;;;;;6192841;23;20424;-76
2022/05/27 13:31:03;;;;;;;7.80;3.78;;;;;;;;;;6214300;23;20383;-86
2022/05/27 13:33:29;;;;;;;;;;;;;;;;;;6214610;23;20384;-85
2022/05/27 13:36:10;;;;;;;6.88;3.92;;;;;;;;;;6212070;23;19904;-84
2022/05/27 13:38:43;;;;;;;4.70;3.85;;;;;;;;;;6215695;23;20083;-87
2022/05/27 13:41:10;;;;;;;6.30;4.15;;;;;;;;;;6186610;23;20004;-85
2022/05/27 13:46:28;;;;;;;36.83;29.70;;;;;;;;;;6191099;23;20352;-84
2022/05/27 13:48:54;;;;;;;8.90;6.22;;;;;;;;;;6210827;23;20008;-85
2022/05/27 13:51:21;;;;;;;9.50;4.80;;;;;;;;;;6187465;23;20104;-84
2022/05/27 13:53:48;;;;;;;7.93;4.32;;;;;;;;;;6214373;23;20000;-84
2022/05/27 13:56:14;;;;;;;7.15;3.92;;;;;;;;;;6213461;23;20054;-85
2022/05/27 13:58:59;;;;;;;6.22;4.15;;;;;;;;;;6188041;23;20399;-78
2022/05/27 14:01:34;;;;;;;6.50;3.85;;;;;;;;;;6212943;23;20001;-86
2022/05/27 14:04:03;;;;;;;7.70;4.80;;;;;;;;;;6214363;23;20055;-85
2022/05/27 14:06:31;;;;;;;8.50;4.55;;;;;;;;;;6214482;23;20008;-85
2022/05/27 14:08:59;;;;;;;15.50;4.85;;;;;;;;;;6186763;23;20020;-84
2022/05/27 14:11:32;;;;;;;9.63;4.85;;;;;;;;;;6214681;23;20039;-86
2022/05/27 14:14:00;;;;;;;10.45;4.97;;;;;;;;;;6214319;23;20008;-85
2022/05/27 14:16:33;;;;;;;8.07;3.72;;;;;;;;;;6188484;23;20042;-84
2022/05/27 14:19:09;;;;;;;5.53;4.25;;;;;;;;;;6213488;23;20005;-85
2022/05/27 14:24:36;;;;;;;;;;;;;;;;;;;;;
2022/05/27 14:27:04;;;;;;;7.85;4.68;;;;;;;;;;6214063;23;20079;-85
2022/05/27 14:29:30;;;;;;;11.43;5.10;;;;;;;;;;6214044;23;20001;-85
2022/05/27 14:32:07;;;;;;;10.90;5.30;;;;;;;;;;6187379;23;20066;-84
2022/05/27 14:34:33;;;;;;;7.65;5.45;;;;;;;;;;6213885;23;20005;-84
2022/05/27 14:37:08;;;;;;;9.02;5.82;;;;;;;;;;6213529;23;20009;-84
2022/05/27 14:39:39;;;;;;;10.27;5.30;;;;;;;;;;6186549;23;20001;-85
2022/05/27 14:42:08;;;;;;;10.50;5.50;;;;;;;;;;6189073;23;20088;-85
2022/05/27 14:44:42;;;;;;;9.77;6.10;;;;;;;;;;6190509;23;20095;-84
2022/05/27 14:49:56;;;;;;;9.35;5.38;;;;;;;;;;6215659;23;20036;-85
2022/05/27 14:52:36;;;;;;;8.70;5.43;;;;;;;;;;6189400;23;20028;-84
2022/05/27 14:55:18;;;;;;;8.30;5.85;;;;;;;;;;6215886;23;20013;-85
2022/05/27 14:57:55;;;;;;;8.00;5.45;;;;;;;;;;6216799;23;20047;-85
2022/05/27 15:00:25;;;;;;;10.15;4.88;;;;;;;;;;6188435;23;20096;-84
2022/05/27 15:02:58;;;;;;;11.93;5.78;;;;;;;;;;6188184;23;20015;-82
2022/05/27 15:05:27;;;;;;;9.00;5.07;;;;;;;;;;6215313;23;20009;-83
2022/05/27 15:08:01;;;;;;;9.68;5.13;;;;;;;;;;6186751;23;20001;-84
2022/05/27 15:10:31;;;;;;;11.10;6.28;;;;;;;;;;6215627;23;20001;-81
2022/05/27 15:12:58;;;;;;;10.90;5.45;;;;;;;;;;6214148;23;20447;-85
2022/05/27 15:15:41;;;;;;;10.07;5.90;;;;;;;;;;6214036;23;20001;-83
2022/05/27 15:18:07;;;;;;;8.73;4.63;;;;;;;;;;6188498;23;20015;-84
2022/05/27 15:20:52;;;;;;;;;;;;;;;;;;;;;
2022/05/27 15:23:25;;;;;;;10.43;5.68;;;;;;;;;;6216379;23;20391;-83
2022/05/27 15:34:17;;;;;;;8.00;5.20;;;;;;;;;;6216049;23;20364;-87
2022/05/27 15:36:50;;;;;;;7.82;5.00;;;;;;;;;;6188534;23;20309;-85
2022/05/27 15:39:20;;;;;;;8.07;6.10;;;;;;;;;;6189057;23;20062;-84
2022/05/27 15:41:52;;;;;;;11.93;5.80;;;;;;;;;;6189536;23;20075;-84
2022/05/27 15:44:18;;;;;;;8.77;5.30;;;;;;;;;;6215418;23;20019;-84
2022/05/27 15:46:48;;;;;;;10.60;5.63;;;;;;;;;;6216100;23;20428;-83
2022/05/27 15:49:32;;;;;;;13.07;7.15;;;;;;;;;;6189705;23;20028;-86
2022/05/27 15:51:59;;;;;;;8.18;6.03;;;;;;;;;;6187461;23;20051;-83
2022/05/27 15:54:26;;;;;;;14.02;12.60;;;;;;;;;;6213935;23;20020;-85
2022/05/27 15:56:54;;;;;;;10.02;8.25;;;;;;;;;;6215382;23;20008;-83
2022/05/27 15:59:20;;;;;;;8.52;6.68;;;;;;;;;;6214271;23;20074;-81
2022/05/27 16:01:47;;;;;;;8.23;6.90;;;;;;;;;;6215601;23;20012;-84
2022/05/27 16:04:13;;;;;;;8.68;5.88;;;;;;;;;;6215400;23;20012;-85
2022/05/27 16:09:25;;;;;;;10.27;6.57;;;;;;;;;;6153945;23;20075;-82
2022/05/27 16:11:52;;;;;;;12.68;6.68;;;;;;;;;;6216286;23;19997;-81
2022/05/27 16:14:18;;;;;;;7.85;6.28;;;;;;;;;;6216623;23;20478;-86
2022/05/27 16:19:33;;;;;;;14.10;9.40;;;;;;;;;;6215124;23;20016;-84
2022/05/27 16:22:14;;;;;;;;;;;;;;;;;;;;;
2022/05/27 16:24:40;;;;;;;11.68;6.60;;;;;;;;;;6215208;23;20095;-81
2022/05/27 16:27:14;;;;;;;11.63;6.05;;;;;;;;;;6215091;23;20039;-83
2022/05/27 16:29:42;;;;;;;9.57;5.75;;;;;;;;;;6214808;23;20005;-87
2022/05/27 16:32:09;;;;;;;8.82;5.75;;;;;;;;;;6188157;23;20039;-83
2022/05/27 16:34:37;;;;;;;6.78;5.20;;;;;;;;;;6215132;23;20008;-83
2022/05/27 16:37:06;;;;;;;10.30;5.80;;;;;;;;;;6188555;23;20012;-84
2022/05/27 16:39:32;;;;;;;9.85;5.90;;;;;;;;;;6188562;23;20000;-84
2022/05/27 16:42:01;;;;;;;17.08;6.63;;;;;;;;;;6214785;23;20000;-84
2022/05/27 16:44:52;;;;;;;8.18;5.25;;;;;;;;;;6188292;23;20096;-82
2022/05/27 16:47:18;;;;;;;10.38;6.25;;;;;;;;;;6188068;23;20007;-84
2022/05/27 16:49:45;;;;;;;10.68;5.97;;;;;;;;;;6215582;23;20004;-84
2022/05/27 16:52:12;;;;;;;13.07;6.93;;;;;;;;;;6215302;23;20059;-83
2022/05/27 16:54:46;;;;;;;12.57;9.63;;;;;;;;;;6188006;23;20448;-84
2022/05/27 16:57:12;;;;;;;;;;;;;;;;;;6189273;23;20000;-82
2022/05/27 16:59:38;;;;;;;11.30;6.65;;;;;;;;;;6213916;23;19923;-87
2022/05/27 17:02:04;;;;;;;7.57;6.47;;;;;;;;;;6184177;23;20058;-82
2022/05/27 17:04:30;;;;;;;12.32;6.57;;;;;;;;;;6212732;23;20013;-82
2022/05/27 17:06:57;;;;;;;10.82;6.68;;;;;;;;;;6188348;23;20075;-81
2022/05/27 17:09:23;;;;;;;10.60;7.13;;;;;;;;;;6215195;23;19997;-83
2022/05/27 17:11:49;;;;;;;10.88;7.65;;;;;;;;;;6215266;23;20005;-82
2022/05/27 17:14:20;;;;;;;9.25;7.00;;;;;;;;;;6186896;23;20492;-82
2022/05/27 17:16:47;;;;;;;13.30;7.93;;;;;;;;;;6188190;23;20364;-82
2022/05/27 17:19:13;;;;;;;12.38;7.30;;;;;;;;;;6188469;23;20013;-82
2022/05/27 17:21:39;;;;;;;13.48;10.05;;;;;;;;;;6213965;23;20005;-84